Langley, Washington
Current Conditions -  °F | °C
As of 3:10 PM on Saturday 20 Dec 2014 (Local Time) from KPAE Reporting Station
Haze Haze  
Wind Chill: 44°   Ceiling: 1400
Heat Index: 47°   Visibility: 2mi
Dew Point: 44°   Wind: 7mph
Humidity: 90%   Direction: NA
Pressure: 29.49"   Gusts: NA
Location:  48.04°N, 122.41°W
Report Text: KPAE 202310Z VRB06KT 2SM BR OVC014 08/07 A2949 RMK AO2 T00830067
Loading
Personal Weather Stations






























Interactive Weather Map New forecast layout! Learn more

10-Day Weather Forecast

Advertisements
Track Severe Weather on mobile